createdAt,value
2022-10-19T05:25:13.141Z,10.55
2022-10-19T05:28:16.461Z,10.58
2022-10-19T05:31:26.389Z,10.64
2022-10-19T05:34:29.511Z,10.63
2022-10-19T05:37:35.102Z,10.74
2022-10-19T05:40:38.455Z,10.76
2022-10-19T05:43:42.474Z,10.76
2022-10-19T05:46:45.991Z,10.87
2022-10-19T05:49:51.375Z,10.96
2022-10-19T05:52:54.715Z,10.92
2022-10-19T05:56:00.048Z,10.98
2022-10-19T05:59:05.899Z,11.07
2022-10-19T06:02:14.299Z,11.11
2022-10-19T06:05:17.421Z,11.24
2022-10-19T06:08:22.394Z,11.31
2022-10-19T06:11:45.189Z,11.54
2022-10-19T06:15:01.277Z,11.95
2022-10-19T06:18:04.887Z,12.04
2022-10-19T06:21:11.369Z,12.12
2022-10-19T06:24:14.749Z,12.27
2022-10-19T06:27:19.987Z,12.35
2022-10-19T06:30:25.599Z,12.43
2022-10-19T06:33:30.035Z,12.51
2022-10-19T06:36:34.527Z,12.65
2022-10-19T06:39:37.213Z,12.83
2022-10-19T06:42:40.522Z,12.86
2022-10-19T06:45:43.755Z,13.05
2022-10-19T06:49:16.702Z,13.09
2022-10-19T06:52:24.241Z,13.37
2022-10-19T06:55:48.119Z,13.43
2022-10-19T06:58:52.233Z,13.59
2022-10-19T07:02:15.427Z,13.65
2022-10-19T07:05:18.439Z,13.83
2022-10-19T07:08:21.961Z,14.15
2022-10-19T07:11:24.988Z,14.13
2022-10-19T07:14:31.575Z,14.39
2022-10-19T07:17:46.397Z,14.61
2022-10-19T07:21:00.757Z,14.65
2022-10-19T07:24:23.145Z,14.85
2022-10-19T07:27:37.834Z,14.91
2022-10-19T07:31:06.376Z,15.10
2022-10-19T07:34:29.482Z,15.30
2022-10-19T07:37:32.533Z,15.40
2022-10-19T07:40:38.196Z,15.75
2022-10-19T07:43:42.662Z,15.87
2022-10-19T07:46:45.512Z,15.80
2022-10-19T07:49:48.155Z,16.26
2022-10-19T07:52:54.697Z,16.31
2022-10-19T07:56:07.165Z,16.49
2022-10-19T08:10:47.154Z,17.45
2022-10-19T08:14:27.090Z,17.43
2022-10-19T08:17:30.938Z,18.27
2022-10-19T08:21:22.788Z,18.15
2022-10-19T08:24:46.062Z,18.69
2022-10-19T08:27:48.984Z,18.60
2022-10-19T08:30:52.122Z,18.32
2022-10-19T08:33:55.770Z,18.91
2022-10-19T08:36:58.431Z,18.89
2022-10-19T08:40:01.440Z,19.20
2022-10-19T08:43:30.133Z,19.86
2022-10-19T08:46:55.947Z,19.25
2022-10-19T08:49:59.896Z,19.61
2022-10-19T08:53:11.437Z,19.73
2022-10-19T08:56:45.830Z,19.88
2022-10-19T09:00:12.544Z,20.44
2022-10-19T09:03:56.832Z,20.06
2022-10-19T09:07:26.014Z,20.55
2022-10-19T09:10:32.583Z,20.60
2022-10-19T09:14:04.079Z,20.47
2022-10-19T09:17:28.921Z,20.66
2022-10-19T09:20:41.549Z,19.39
2022-10-19T09:24:21.165Z,20.49
2022-10-19T09:28:45.556Z,20.57
2022-10-19T09:31:53.919Z,20.44
2022-10-19T09:35:07.389Z,20.81
2022-10-19T09:38:32.146Z,20.63
2022-10-19T09:41:59.342Z,20.70
2022-10-19T09:45:14.656Z,20.85
2022-10-19T09:48:37.756Z,20.92
2022-10-19T09:51:47.090Z,20.89
2022-10-19T09:55:03.578Z,20.78
2022-10-19T09:58:13.435Z,20.42
2022-10-19T10:01:41.477Z,20.81
2022-10-19T10:05:15.757Z,20.77
2022-10-19T10:08:22.919Z,21.19
2022-10-19T10:11:48.074Z,21.44
2022-10-19T10:14:56.508Z,20.80
2022-10-19T10:17:59.943Z,20.53
2022-10-19T10:21:25.433Z,20.04
2022-10-19T10:24:45.387Z,19.68
2022-10-19T10:27:57.751Z,19.91
2022-10-19T10:31:05.450Z,20.42
2022-10-19T10:34:28.488Z,20.61
2022-10-19T10:37:42.929Z,20.79
2022-10-19T10:41:01.020Z,20.53
2022-10-19T10:44:17.402Z,20.41
2022-10-19T10:47:21.302Z,20.45
2022-10-19T10:50:32.603Z,20.42
2022-10-19T10:53:40.542Z,20.30
2022-10-19T10:56:54.827Z,20.29
2022-10-19T11:00:14.157Z,20.23
2022-10-19T11:03:25.258Z,20.42
2022-10-19T11:06:27.949Z,20.52
2022-10-19T11:09:43.690Z,20.19
2022-10-19T11:12:54.730Z,20.14
2022-10-19T11:16:24.488Z,19.98
2022-10-19T11:19:37.507Z,20.02
2022-10-19T11:23:05.682Z,19.97
2022-10-19T11:26:25.372Z,19.88
2022-10-19T11:29:52.074Z,19.87
2022-10-19T11:34:21.237Z,19.63
2022-10-19T11:37:50.096Z,19.64
2022-10-19T11:41:39.491Z,19.69
2022-10-19T11:44:59.606Z,19.44
2022-10-19T11:48:14.270Z,19.33
2022-10-19T11:51:33.051Z,19.27
2022-10-19T11:55:27.338Z,18.97
2022-10-19T12:02:24.158Z,18.22
2022-10-19T12:05:48.255Z,17.95
2022-10-19T12:09:09.452Z,18.06
2022-10-19T12:12:44.301Z,18.42
2022-10-19T12:15:53.834Z,18.77
2022-10-19T12:19:00.997Z,19.01
2022-10-19T12:22:07.191Z,19.07
2022-10-19T12:25:14.729Z,19.33
2022-10-19T12:28:35.909Z,19.33
2022-10-19T12:31:40.925Z,19.38
2022-10-19T12:35:04.221Z,18.59
2022-10-19T12:38:14.812Z,17.66
2022-10-19T12:41:37.912Z,17.73
2022-10-19T12:45:01.158Z,17.71
2022-10-19T12:48:12.884Z,17.59
2022-10-19T12:51:18.275Z,17.70
2022-10-19T12:54:27.181Z,17.89
2022-10-19T12:57:30.551Z,17.91
2022-10-19T13:00:37.648Z,17.86
2022-10-19T13:03:43.371Z,17.75
2022-10-19T13:07:17.934Z,17.84
2022-10-19T13:10:41.959Z,17.64
2022-10-19T13:14:07.195Z,17.69
2022-10-19T13:17:52.699Z,17.79
2022-10-19T13:21:44.433Z,17.67
2022-10-19T13:28:59.694Z,17.54
2022-10-19T13:33:03.562Z,17.36
2022-10-19T13:37:03.876Z,17.31
2022-10-19T13:40:49.475Z,17.39
2022-10-19T13:44:35.572Z,17.28
2022-10-19T13:47:58.145Z,17.13
2022-10-19T13:51:41.878Z,17.26
2022-10-19T13:56:00.446Z,17.23
2022-10-19T13:59:41.027Z,17.17
2022-10-19T14:07:33.229Z,16.95
2022-10-19T14:11:00.230Z,16.86
2022-10-19T14:14:28.335Z,16.97
2022-10-19T14:17:34.317Z,16.85
2022-10-19T14:20:39.306Z,16.77
2022-10-19T14:23:42.714Z,16.74
2022-10-19T14:26:46.762Z,16.57
2022-10-19T14:29:52.214Z,16.56
2022-10-19T14:32:59.421Z,16.41
2022-10-19T14:43:42.925Z,16.31
2022-10-19T14:51:35.930Z,15.98
2022-10-19T14:54:48.705Z,16.00
2022-10-19T14:57:53.889Z,15.88
2022-10-19T15:01:07.680Z,15.81
2022-10-19T15:04:36.565Z,15.69
2022-10-19T15:08:21.667Z,15.57
2022-10-19T15:11:33.038Z,15.53
2022-10-19T15:14:56.979Z,15.42
2022-10-19T15:18:43.541Z,15.36
2022-10-19T15:22:14.421Z,15.20
2022-10-19T15:25:28.082Z,15.05
2022-10-19T15:28:40.595Z,15.04
2022-10-19T15:31:47.041Z,14.93
2022-10-19T15:34:49.861Z,14.90
2022-10-19T15:38:15.585Z,14.82
2022-10-19T15:41:21.811Z,14.74
2022-10-19T15:44:42.521Z,14.77
2022-10-19T15:48:10.295Z,14.75
2022-10-19T15:51:25.772Z,14.63
2022-10-19T15:54:28.503Z,14.37
2022-10-19T15:57:37.200Z,14.18
2022-10-19T16:00:41.974Z,14.05
2022-10-19T16:03:46.210Z,13.83
2022-10-19T16:06:48.991Z,13.66
2022-10-19T16:09:53.043Z,13.64
2022-10-19T16:12:55.666Z,13.46
2022-10-19T16:16:11.350Z,13.45
2022-10-19T16:19:14.934Z,13.31
2022-10-19T16:22:19.056Z,13.26
2022-10-19T16:25:22.062Z,13.23
2022-10-19T16:28:25.288Z,13.14
2022-10-19T16:31:28.439Z,13.18
2022-10-19T16:34:31.632Z,13.13
2022-10-19T16:37:35.380Z,12.96
2022-10-19T16:40:40.292Z,12.80
2022-10-19T16:43:43.850Z,12.77
2022-10-19T16:46:47.070Z,12.64
2022-10-19T16:49:58.439Z,12.66
2022-10-19T16:53:10.265Z,12.57
2022-10-19T16:56:13.824Z,12.48
2022-10-19T16:59:19.018Z,12.44
2022-10-19T17:02:22.414Z,12.32
2022-10-19T17:05:26.612Z,12.23
2022-10-19T17:08:36.911Z,12.18
2022-10-19T17:11:48.990Z,12.07
2022-10-19T17:14:52.039Z,12.00
2022-10-19T17:17:55.683Z,11.89
2022-10-19T17:21:07.744Z,11.84
2022-10-19T17:24:21.021Z,11.81
2022-10-19T17:27:25.754Z,11.64
2022-10-19T17:30:30.425Z,11.73
2022-10-19T17:33:36.445Z,11.67
2022-10-19T17:36:44.431Z,11.43
2022-10-19T17:39:51.570Z,11.27
2022-10-19T17:42:55.067Z,11.15
2022-10-19T17:46:03.239Z,10.98
2022-10-19T17:49:07.738Z,11.18
2022-10-19T17:52:10.911Z,11.33
2022-10-19T17:55:14.790Z,11.20
2022-10-19T17:58:18.401Z,11.20
2022-10-19T18:01:22.453Z,11.21
2022-10-19T18:04:26.041Z,11.20
2022-10-19T18:07:28.958Z,11.17
2022-10-19T18:10:35.535Z,11.20
2022-10-19T18:13:39.543Z,11.24
2022-10-19T18:16:47.296Z,11.28
2022-10-19T18:19:50.432Z,11.25
2022-10-19T18:22:53.646Z,11.23
2022-10-19T18:26:01.248Z,11.14
2022-10-19T18:29:12.763Z,11.06
2022-10-19T18:32:16.168Z,10.87
2022-10-19T18:35:19.553Z,10.71
2022-10-19T18:38:22.987Z,10.88
2022-10-19T18:41:27.036Z,10.60
2022-10-19T18:44:33.474Z,10.37
2022-10-19T18:47:37.212Z,10.47
2022-10-19T18:50:41.177Z,10.27
2022-10-19T18:53:45.693Z,10.47
2022-10-19T18:56:49.563Z,10.27
2022-10-19T18:59:55.489Z,10.14
2022-10-19T19:02:58.567Z,10.16
2022-10-19T19:06:03.063Z,10.05
2022-10-19T19:09:09.714Z,9.96
2022-10-19T19:12:12.853Z,9.91
2022-10-19T19:15:16.158Z,9.88
2022-10-19T19:18:19.305Z,9.79
2022-10-19T19:21:29.713Z,9.80
2022-10-19T19:24:33.030Z,9.77
2022-10-19T19:30:47.313Z,9.87
2022-10-19T19:33:50.828Z,9.82
2022-10-19T19:36:54.203Z,9.90
2022-10-19T19:39:58.163Z,9.80
2022-10-19T19:43:01.689Z,9.83
2022-10-19T19:46:09.549Z,9.75
2022-10-19T19:49:13.151Z,9.65
2022-10-19T19:52:16.577Z,9.74
2022-10-19T19:55:20.666Z,9.71
2022-10-19T19:58:23.777Z,9.71
2022-10-19T20:01:27.355Z,9.55
2022-10-19T20:04:30.502Z,9.55
2022-10-19T20:07:33.756Z,9.52
2022-10-19T20:10:39.726Z,9.58
2022-10-19T20:13:45.122Z,9.48
2022-10-19T20:16:48.709Z,9.49
2022-10-19T20:19:51.737Z,9.51
2022-10-19T20:22:54.999Z,9.57
2022-10-19T20:25:58.192Z,9.53
2022-10-19T20:29:02.854Z,9.49
2022-10-19T20:32:05.934Z,9.47
2022-10-19T20:35:09.380Z,9.27
2022-10-19T20:38:12.328Z,9.16
2022-10-19T20:41:15.957Z,9.13
2022-10-19T20:44:22.027Z,9.15
2022-10-19T20:47:25.511Z,9.10
2022-10-19T20:50:29.676Z,9.10
2022-10-19T20:53:32.773Z,9.13
2022-10-19T20:56:37.127Z,9.11
2022-10-19T20:59:43.860Z,9.01
2022-10-19T21:02:46.779Z,8.89
2022-10-19T21:05:49.753Z,8.81
2022-10-19T21:08:52.804Z,8.78
2022-10-19T21:11:55.720Z,8.70
2022-10-19T21:14:58.226Z,8.54
2022-10-19T21:18:01.103Z,8.48
2022-10-19T21:21:22.190Z,8.33
2022-10-19T21:24:27.803Z,8.32
2022-10-19T21:27:30.326Z,8.22
2022-10-19T21:30:39.356Z,8.11
2022-10-19T21:33:42.043Z,8.10
2022-10-19T21:36:45.266Z,8.14
2022-10-19T21:39:47.949Z,8.04
2022-10-19T21:42:50.733Z,8.05
2022-10-19T21:45:53.446Z,7.99
2022-10-19T21:48:56.569Z,8.03
2022-10-19T21:51:59.185Z,7.89
2022-10-19T21:55:02.034Z,7.89
2022-10-19T21:58:05.256Z,7.95
2022-10-19T22:01:08.654Z,7.90
2022-10-19T22:04:17.243Z,7.88
2022-10-19T22:07:19.793Z,7.71
2022-10-19T22:10:23.375Z,7.72
2022-10-19T22:13:25.935Z,7.55
2022-10-19T22:16:29.969Z,7.38
2022-10-19T22:19:32.569Z,7.24
2022-10-19T22:22:35.580Z,7.04
2022-10-19T22:25:38.188Z,7.10
2022-10-19T22:28:41.016Z,6.92
2022-10-19T22:31:44.579Z,6.93
2022-10-19T22:34:47.447Z,6.69
2022-10-19T22:37:49.971Z,6.66
2022-10-19T22:41:49.381Z,6.79
2022-10-19T22:45:10.464Z,6.79
2022-10-19T22:48:13.586Z,6.85
2022-10-19T22:51:16.362Z,6.86
2022-10-19T22:54:19.326Z,6.82
2022-10-19T22:57:22.029Z,6.76
2022-10-19T23:00:25.336Z,6.71
2022-10-19T23:03:27.929Z,6.67
2022-10-19T23:06:30.825Z,6.63
2022-10-19T23:09:33.834Z,6.53
2022-10-19T23:12:36.857Z,6.58
2022-10-19T23:15:43.156Z,6.58
2022-10-19T23:18:46.929Z,6.50
2022-10-19T23:21:49.578Z,6.49
2022-10-19T23:24:52.505Z,6.47
2022-10-19T23:27:55.134Z,6.37
2022-10-19T23:31:07.401Z,6.42
2022-10-19T23:34:10.102Z,6.40
2022-10-19T23:37:12.913Z,6.39
2022-10-19T23:40:21.464Z,6.29
2022-10-19T23:43:24.504Z,6.19
2022-10-19T23:46:27.129Z,6.14
2022-10-19T23:49:30.154Z,6.07
